sensor_id;sensor_type;location;lat;lon;timestamp;pressure;altitude;pressure_sealevel;temperature;humidity
55068;BME280;40965;52.368;9.712;2022-11-15T00:01:00;100476.78;;;4.35;100.00
55068;BME280;40965;52.368;9.712;2022-11-15T00:03:27;100481.06;;;4.33;100.00
55068;BME280;40965;52.368;9.712;2022-11-15T00:05:54;100475.13;;;4.38;100.00
55068;BME280;40965;52.368;9.712;2022-11-15T00:08:20;100480.25;;;4.37;100.00
55068;BME280;40965;52.368;9.712;2022-11-15T00:10:57;100482.09;;;4.42;100.00
55068;BME280;40965;52.368;9.712;2022-11-15T00:13:26;100479.59;;;4.49;100.00
55068;BME280;40965;52.368;9.712;2022-11-15T00:15:57;100486.53;;;4.51;100.00
55068;BME280;40965;52.368;9.712;2022-11-15T00:18:24;100486.66;;;4.62;100.00
55068;BME280;40965;52.368;9.712;2022-11-15T00:20:50;100494.47;;;4.65;100.00
55068;BME280;40965;52.368;9.712;2022-11-15T00:23:17;100487.63;;;4.70;100.00
55068;BME280;40965;52.368;9.712;2022-11-15T00:25:43;100478.25;;;4.80;100.00
55068;BME280;40965;52.368;9.712;2022-11-15T00:28:10;100480.00;;;4.81;100.00
55068;BME280;40965;52.368;9.712;2022-11-15T00:30:36;100473.16;;;4.91;100.00
55068;BME280;40965;52.368;9.712;2022-11-15T00:33:04;100472.41;;;5.01;100.00
55068;BME280;40965;52.368;9.712;2022-11-15T00:35:32;100483.69;;;5.03;100.00
55068;BME280;40965;52.368;9.712;2022-11-15T00:38:00;100484.47;;;4.97;100.00
55068;BME280;40965;52.368;9.712;2022-11-15T00:40:26;100486.13;;;4.91;100.00
55068;BME280;40965;52.368;9.712;2022-11-15T00:43:05;100484.38;;;4.88;100.00
55068;BME280;40965;52.368;9.712;2022-11-15T00:45:31;100481.88;;;4.94;100.00
55068;BME280;40965;52.368;9.712;2022-11-15T00:47:58;100480.28;;;5.10;100.00
55068;BME280;40965;52.368;9.712;2022-11-15T00:50:24;100477.91;;;5.30;100.00
55068;BME280;40965;52.368;9.712;2022-11-15T00:52:51;100473.75;;;5.48;100.00
55068;BME280;40965;52.368;9.712;2022-11-15T00:55:18;100471.28;;;5.62;100.00
55068;BME280;40965;52.368;9.712;2022-11-15T00:57:45;100468.75;;;5.73;100.00
55068;BME280;40965;52.368;9.712;2022-11-15T01:00:12;100470.59;;;5.86;100.00
55068;BME280;40965;52.368;9.712;2022-11-15T01:02:39;100462.94;;;5.99;100.00
55068;BME280;40965;52.368;9.712;2022-11-15T01:05:06;100463.84;;;6.10;100.00
55068;BME280;40965;52.368;9.712;2022-11-15T01:07:33;100450.94;;;6.21;100.00
55068;BME280;40965;52.368;9.712;2022-11-15T01:10:00;100457.03;;;6.27;100.00
55068;BME280;40965;52.368;9.712;2022-11-15T01:12:26;100455.34;;;6.36;100.00
55068;BME280;40965;52.368;9.712;2022-11-15T01:14:53;100445.78;;;6.32;100.00
55068;BME280;40965;52.368;9.712;2022-11-15T01:17:20;100444.00;;;6.23;100.00
55068;BME280;40965;52.368;9.712;2022-11-15T01:19:47;100444.88;;;6.25;100.00
55068;BME280;40965;52.368;9.712;2022-11-15T01:22:13;100443.19;;;6.28;100.00
55068;BME280;40965;52.368;9.712;2022-11-15T01:24:39;100439.75;;;6.37;100.00
55068;BME280;40965;52.368;9.712;2022-11-15T01:27:06;100425.03;;;6.44;100.00
55068;BME280;40965;52.368;9.712;2022-11-15T01:29:33;100432.91;;;6.55;100.00
55068;BME280;40965;52.368;9.712;2022-11-15T01:32:00;100434.66;;;6.64;100.00
55068;BME280;40965;52.368;9.712;2022-11-15T01:34:26;100425.16;;;6.72;100.00
55068;BME280;40965;52.368;9.712;2022-11-15T01:36:55;100408.66;;;6.68;100.00
55068;BME280;40965;52.368;9.712;2022-11-15T01:39:21;100419.03;;;6.56;100.00
55068;BME280;40965;52.368;9.712;2022-11-15T01:41:48;100411.16;;;6.39;100.00
55068;BME280;40965;52.368;9.712;2022-11-15T01:47:02;100404.97;;;6.09;100.00
55068;BME280;40965;52.368;9.712;2022-11-15T01:49:33;100396.16;;;5.93;100.00
55068;BME280;40965;52.368;9.712;2022-11-15T01:52:03;100403.03;;;5.85;100.00
55068;BME280;40965;52.368;9.712;2022-11-15T01:54:31;100400.38;;;5.77;100.00
55068;BME280;40965;52.368;9.712;2022-11-15T01:57:07;100396.88;;;5.72;100.00
55068;BME280;40965;52.368;9.712;2022-11-15T01:59:38;100397.72;;;5.66;100.00
55068;BME280;40965;52.368;9.712;2022-11-15T02:02:07;100405.59;;;5.75;100.00
55068;BME280;40965;52.368;9.712;2022-11-15T02:04:38;100404.78;;;5.89;100.00
55068;BME280;40965;52.368;9.712;2022-11-15T02:07:11;100408.41;;;6.11;100.00
55068;BME280;40965;52.368;9.712;2022-11-15T02:09:42;100396.38;;;6.30;100.00
55068;BME280;40965;52.368;9.712;2022-11-15T02:12:14;100392.97;;;6.42;100.00
55068;BME280;40965;52.368;9.712;2022-11-15T02:14:45;100389.53;;;6.51;100.00
55068;BME280;40965;52.368;9.712;2022-11-15T02:17:33;100390.44;;;6.64;100.00
55068;BME280;40965;52.368;9.712;2022-11-15T02:20:25;100393.97;;;6.78;100.00
55068;BME280;40965;52.368;9.712;2022-11-15T02:26:47;100380.91;;;6.66;100.00
55068;BME280;40965;52.368;9.712;2022-11-15T02:33:01;100379.09;;;6.40;100.00
55068;BME280;40965;52.368;9.712;2022-11-15T02:35:51;100373.88;;;6.35;100.00
55068;BME280;40965;52.368;9.712;2022-11-15T02:38:40;100366.94;;;6.36;100.00
55068;BME280;40965;52.368;9.712;2022-11-15T02:41:15;100364.41;;;6.51;100.00
55068;BME280;40965;52.368;9.712;2022-11-15T02:46:33;100364.47;;;6.74;100.00
55068;BME280;40965;52.368;9.712;2022-11-15T02:49:20;100360.13;;;6.90;100.00
55068;BME280;40965;52.368;9.712;2022-11-15T02:51:49;100349.75;;;7.00;100.00
55068;BME280;40965;52.368;9.712;2022-11-15T02:54:23;100348.03;;;7.11;100.00
55068;BME280;40965;52.368;9.712;2022-11-15T02:56:53;100345.41;;;7.14;100.00
55068;BME280;40965;52.368;9.712;2022-11-15T03:02:33;100347.16;;;7.06;100.00
55068;BME280;40965;52.368;9.712;2022-11-15T03:08:02;100352.34;;;7.04;100.00
55068;BME280;40965;52.368;9.712;2022-11-15T03:14:19;100348.03;;;7.20;100.00
55068;BME280;40965;52.368;9.712;2022-11-15T03:17:03;100340.22;;;7.36;100.00
55068;BME280;40965;52.368;9.712;2022-11-15T03:19:47;100341.94;;;7.44;100.00
55068;BME280;40965;52.368;9.712;2022-11-15T03:22:19;100336.69;;;7.58;100.00
55068;BME280;40965;52.368;9.712;2022-11-15T03:24:52;100327.13;;;7.70;100.00
55068;BME280;40965;52.368;9.712;2022-11-15T03:27:23;100334.94;;;7.77;100.00
55068;BME280;40965;52.368;9.712;2022-11-15T03:29:56;100327.94;;;7.87;100.00
55068;BME280;40965;52.368;9.712;2022-11-15T03:32:28;100324.47;;;7.88;100.00
55068;BME280;40965;52.368;9.712;2022-11-15T03:34:57;100325.31;;;7.92;100.00
55068;BME280;40965;52.368;9.712;2022-11-15T03:37:44;100321.84;;;7.93;100.00
55068;BME280;40965;52.368;9.712;2022-11-15T03:40:16;100333.13;;;7.97;100.00
55068;BME280;40965;52.368;9.712;2022-11-15T03:42:50;100336.59;;;8.02;100.00
55068;BME280;40965;52.368;9.712;2022-11-15T03:45:56;100334.00;;;7.94;100.00
55068;BME280;40965;52.368;9.712;2022-11-15T03:48:30;100331.38;;;7.92;100.00
55068;BME280;40965;52.368;9.712;2022-11-15T03:51:02;100335.75;;;7.87;100.00
55068;BME280;40965;52.368;9.712;2022-11-15T03:53:29;100330.53;;;7.92;100.00
55068;BME280;40965;52.368;9.712;2022-11-15T03:55:57;100337.47;;;7.99;100.00
55068;BME280;40965;52.368;9.712;2022-11-15T03:58:24;100336.63;;;7.95;100.00
55068;BME280;40965;52.368;9.712;2022-11-15T04:00:50;100335.75;;;7.90;100.00
55068;BME280;40965;52.368;9.712;2022-11-15T04:03:17;100338.34;;;7.92;100.00
55068;BME280;40965;52.368;9.712;2022-11-15T04:05:46;100335.75;;;7.92;100.00
55068;BME280;40965;52.368;9.712;2022-11-15T04:08:13;100330.56;;;7.89;100.00
55068;BME280;40965;52.368;9.712;2022-11-15T04:10:39;100334.91;;;7.85;100.00
55068;BME280;40965;52.368;9.712;2022-11-15T04:13:06;100323.59;;;7.83;100.00
55068;BME280;40965;52.368;9.712;2022-11-15T04:15:32;100322.72;;;7.87;100.00
55068;BME280;40965;52.368;9.712;2022-11-15T04:17:59;100324.47;;;7.91;100.00
55068;BME280;40965;52.368;9.712;2022-11-15T04:20:28;100321.84;;;7.94;100.00
55068;BME280;40965;52.368;9.712;2022-11-15T04:23:14;100320.94;;;7.99;100.00
55068;BME280;40965;52.368;9.712;2022-11-15T04:28:35;100314.03;;;7.93;100.00
55068;BME280;40965;52.368;9.712;2022-11-15T04:31:22;100322.72;;;7.87;100.00
55068;BME280;40965;52.368;9.712;2022-11-15T04:33:49;100319.28;;;7.85;100.00
55068;BME280;40965;52.368;9.712;2022-11-15T04:36:15;100323.59;;;7.85;100.00
55068;BME280;40965;52.368;9.712;2022-11-15T04:38:59;100322.72;;;7.92;100.00
55068;BME280;40965;52.368;9.712;2022-11-15T04:41:26;100328.81;;;7.94;100.00
55068;BME280;40965;52.368;9.712;2022-11-15T04:43:52;100334.00;;;7.95;100.00
55068;BME280;40965;52.368;9.712;2022-11-15T04:46:18;100327.00;;;8.07;100.00
55068;BME280;40965;52.368;9.712;2022-11-15T04:48:45;100337.41;;;8.11;100.00
55068;BME280;40965;52.368;9.712;2022-11-15T04:51:12;100334.81;;;8.13;100.00
55068;BME280;40965;52.368;9.712;2022-11-15T04:53:44;100333.91;;;8.22;100.00
55068;BME280;40965;52.368;9.712;2022-11-15T04:56:11;100342.59;;;8.24;100.00
55068;BME280;40965;52.368;9.712;2022-11-15T04:58:41;100343.41;;;8.29;100.00
55068;BME280;40965;52.368;9.712;2022-11-15T05:01:13;100338.16;;;8.41;100.00
55068;BME280;40965;52.368;9.712;2022-11-15T05:03:41;100341.63;;;8.47;100.00
55068;BME280;40965;52.368;9.712;2022-11-15T05:06:25;100346.78;;;8.60;100.00
55068;BME280;40965;52.368;9.712;2022-11-15T05:08:54;100346.69;;;8.74;100.00
55068;BME280;40965;52.368;9.712;2022-11-15T05:11:24;100343.13;;;8.85;100.00
55068;BME280;40965;52.368;9.712;2022-11-15T05:13:52;100343.06;;;8.94;100.00
55068;BME280;40965;52.368;9.712;2022-11-15T05:16:19;100343.91;;;9.02;100.00
55068;BME280;40965;52.368;9.712;2022-11-15T05:18:50;100346.47;;;9.10;100.00
55068;BME280;40965;52.368;9.712;2022-11-15T05:21:21;100344.66;;;9.17;100.00
55068;BME280;40965;52.368;9.712;2022-11-15T05:23:48;100346.38;;;9.19;100.00
55068;BME280;40965;52.368;9.712;2022-11-15T05:26:22;100352.44;;;9.21;100.00
55068;BME280;40965;52.368;9.712;2022-11-15T05:28:57;100355.03;;;9.23;100.00
55068;BME280;40965;52.368;9.712;2022-11-15T05:31:25;100352.44;;;9.21;100.00
55068;BME280;40965;52.368;9.712;2022-11-15T05:33:55;100348.94;;;9.24;100.00
55068;BME280;40965;52.368;9.712;2022-11-15T05:36:38;100355.06;;;9.21;100.00
55068;BME280;40965;52.368;9.712;2022-11-15T05:39:08;100349.88;;;9.14;100.00
55068;BME280;40965;52.368;9.712;2022-11-15T05:41:49;100357.75;;;9.10;100.00
55068;BME280;40965;52.368;9.712;2022-11-15T05:44:22;100349.06;;;9.10;100.00
55068;BME280;40965;52.368;9.712;2022-11-15T05:46:52;100350.78;;;9.11;100.00
55068;BME280;40965;52.368;9.712;2022-11-15T05:49:23;100347.31;;;9.10;100.00
55068;BME280;40965;52.368;9.712;2022-11-15T05:51:53;100344.69;;;9.12;100.00
55068;BME280;40965;52.368;9.712;2022-11-15T05:54:21;100339.47;;;9.10;100.00
55068;BME280;40965;52.368;9.712;2022-11-15T05:56:49;100342.16;;;9.03;100.00
55068;BME280;40965;52.368;9.712;2022-11-15T05:59:16;100349.19;;;8.93;100.00
55068;BME280;40965;52.368;9.712;2022-11-15T06:01:43;100344.88;;;8.86;100.00
55068;BME280;40965;52.368;9.712;2022-11-15T06:04:09;100347.56;;;8.76;100.00
55068;BME280;40965;52.368;9.712;2022-11-15T06:06:36;100350.19;;;8.75;100.00
55068;BME280;40965;52.368;9.712;2022-11-15T06:09:03;100347.56;;;8.76;100.00
55068;BME280;40965;52.368;9.712;2022-11-15T06:11:29;100344.88;;;8.86;100.00
55068;BME280;40965;52.368;9.712;2022-11-15T06:13:56;100352.59;;;8.98;100.00
55068;BME280;40965;52.368;9.712;2022-11-15T06:16:23;100351.66;;;9.12;100.00
55068;BME280;40965;52.368;9.712;2022-11-15T06:18:52;100349.00;;;9.18;100.00
55068;BME280;40965;52.368;9.712;2022-11-15T06:21:19;100355.03;;;9.26;100.00
55068;BME280;40965;52.368;9.712;2022-11-15T06:23:46;100354.13;;;9.25;100.00
55068;BME280;40965;52.368;9.712;2022-11-15T06:26:14;100351.53;;;9.29;100.00
55068;BME280;40965;52.368;9.712;2022-11-15T06:28:41;100352.34;;;9.31;100.00
55068;BME280;40965;52.368;9.712;2022-11-15T06:31:09;100348.03;;;9.30;100.00
55068;BME280;40965;52.368;9.712;2022-11-15T06:33:38;100341.97;;;9.24;100.00
55068;BME280;40965;52.368;9.712;2022-11-15T06:36:07;100347.28;;;9.15;100.00
55068;BME280;40965;52.368;9.712;2022-11-15T06:38:36;100346.47;;;9.05;100.00
55068;BME280;40965;52.368;9.712;2022-11-15T06:41:04;100347.41;;;8.97;100.00
55068;BME280;40965;52.368;9.712;2022-11-15T06:43:33;100345.72;;;8.91;100.00
55068;BME280;40965;52.368;9.712;2022-11-15T06:46:01;100351.91;;;8.77;100.00
55068;BME280;40965;52.368;9.712;2022-11-15T06:48:29;100348.44;;;8.69;100.00
55068;BME280;40965;52.368;9.712;2022-11-15T06:50:58;100355.44;;;8.64;100.00
55068;BME280;40965;52.368;9.712;2022-11-15T06:53:26;100358.09;;;8.61;100.00
55068;BME280;40965;52.368;9.712;2022-11-15T06:55:53;100363.28;;;8.61;100.00
55068;BME280;40965;52.368;9.712;2022-11-15T06:58:24;100360.69;;;8.56;100.00
55068;BME280;40965;52.368;9.712;2022-11-15T07:00:51;100363.31;;;8.55;100.00
55068;BME280;40965;52.368;9.712;2022-11-15T07:03:17;100359.81;;;8.62;100.00
55068;BME280;40965;52.368;9.712;2022-11-15T07:05:54;100362.38;;;8.67;100.00
55068;BME280;40965;52.368;9.712;2022-11-15T07:08:23;100356.31;;;8.68;100.00
55068;BME280;40965;52.368;9.712;2022-11-15T07:10:50;100358.03;;;8.70;100.00
55068;BME280;40965;52.368;9.712;2022-11-15T07:13:17;100362.41;;;8.64;100.00
55068;BME280;40965;52.368;9.712;2022-11-15T07:15:43;100365.91;;;8.63;100.00
55068;BME280;40965;52.368;9.712;2022-11-15T07:18:10;100368.50;;;8.67;100.00
55068;BME280;40965;52.368;9.712;2022-11-15T07:20:36;100364.13;;;8.69;100.00
55068;BME280;40965;52.368;9.712;2022-11-15T07:23:05;100371.06;;;8.72;100.00
55068;BME280;40965;52.368;9.712;2022-11-15T07:25:31;100358.00;;;8.75;100.00
55068;BME280;40965;52.368;9.712;2022-11-15T07:27:58;100365.78;;;8.81;100.00
55068;BME280;40965;52.368;9.712;2022-11-15T07:30:26;100367.50;;;8.84;100.00
55068;BME280;40965;52.368;9.712;2022-11-15T07:35:20;100375.34;;;8.82;100.00
55068;BME280;40965;52.368;9.712;2022-11-15T07:38:00;100378.88;;;8.76;100.00
55068;BME280;40965;52.368;9.712;2022-11-15T07:40:29;100379.78;;;8.72;100.00
55068;BME280;40965;52.368;9.712;2022-11-15T07:43:02;100375.41;;;8.74;100.00
55068;BME280;40965;52.368;9.712;2022-11-15T07:45:30;100374.56;;;8.72;100.00
55068;BME280;40965;52.368;9.712;2022-11-15T07:47:58;100371.94;;;8.68;100.00
55068;BME280;40965;52.368;9.712;2022-11-15T07:50:26;100369.38;;;8.63;100.00
55068;BME280;40965;52.368;9.712;2022-11-15T07:52:59;100372.88;;;8.59;100.00
55068;BME280;40965;52.368;9.712;2022-11-15T07:55:27;100375.50;;;8.54;100.00
55068;BME280;40965;52.368;9.712;2022-11-15T07:58:05;100371.16;;;8.53;100.00
55068;BME280;40965;52.368;9.712;2022-11-15T08:00:34;100371.13;;;8.56;100.00
55068;BME280;40965;52.368;9.712;2022-11-15T08:03:08;100372.03;;;8.54;100.00
55068;BME280;40965;52.368;9.712;2022-11-15T08:05:40;100363.34;;;8.53;100.00
55068;BME280;40965;52.368;9.712;2022-11-15T08:08:08;100360.75;;;8.50;100.00
55068;BME280;40965;52.368;9.712;2022-11-15T08:10:36;100367.69;;;8.42;100.00
55068;BME280;40965;52.368;9.712;2022-11-15T08:13:09;100370.31;;;8.48;100.00
55068;BME280;40965;52.368;9.712;2022-11-15T08:15:37;100366.78;;;8.58;100.00
55068;BME280;40965;52.368;9.712;2022-11-15T08:18:08;100359.81;;;8.64;100.00
55068;BME280;40965;52.368;9.712;2022-11-15T08:20:36;100366.75;;;8.71;100.00
55068;BME280;40965;52.368;9.712;2022-11-15T08:23:04;100364.06;;;8.82;100.00
55068;BME280;40965;52.368;9.712;2022-11-15T08:25:33;100373.53;;;8.95;100.00
55068;BME280;40965;52.368;9.712;2022-11-15T08:28:03;100363.78;;;9.17;100.00
55068;BME280;40965;52.368;9.712;2022-11-15T08:30:34;100366.19;;;9.42;100.00
55068;BME280;40965;52.368;9.712;2022-11-15T08:33:02;100362.50;;;9.66;100.00
55068;BME280;40965;52.368;9.712;2022-11-15T08:35:29;100364.16;;;9.76;100.00
55068;BME280;40965;52.368;9.712;2022-11-15T08:37:55;100364.97;;;9.79;100.00
55068;BME280;40965;52.368;9.712;2022-11-15T08:40:22;100356.28;;;9.75;100.00
55068;BME280;40965;52.368;9.712;2022-11-15T08:42:48;100367.66;;;9.74;100.00
55068;BME280;40965;52.368;9.712;2022-11-15T08:45:15;100365.03;;;9.75;100.00
55068;BME280;40965;52.368;9.712;2022-11-15T08:47:41;100365.00;;;9.77;100.00
55068;BME280;40965;52.368;9.712;2022-11-15T08:50:08;100358.00;;;9.77;100.00
55068;BME280;40965;52.368;9.712;2022-11-15T08:52:35;100357.13;;;9.79;100.00
55068;BME280;40965;52.368;9.712;2022-11-15T08:55:02;100352.75;;;9.82;100.00
55068;BME280;40965;52.368;9.712;2022-11-15T08:57:30;100358.78;;;9.87;100.00
55068;BME280;40965;52.368;9.712;2022-11-15T08:59:57;100361.34;;;9.93;100.00
55068;BME280;40965;52.368;9.712;2022-11-15T09:02:23;100359.50;;;10.02;100.00
55068;BME280;40965;52.368;9.712;2022-11-15T09:04:50;100355.97;;;10.06;100.00
55068;BME280;40965;52.368;9.712;2022-11-15T09:07:17;100354.16;;;10.11;100.00
55068;BME280;40965;52.368;9.712;2022-11-15T09:09:44;100354.06;;;10.19;100.00
55068;BME280;40965;52.368;9.712;2022-11-15T09:12:10;100352.28;;;10.22;100.00
55068;BME280;40965;52.368;9.712;2022-11-15T09:14:37;100352.28;;;10.24;100.00
55068;BME280;40965;52.368;9.712;2022-11-15T09:17:07;100353.97;;;10.26;100.00
55068;BME280;40965;52.368;9.712;2022-11-15T09:19:34;100355.66;;;10.32;100.00
55068;BME280;40965;52.368;9.712;2022-11-15T09:22:01;100347.75;;;10.38;100.00
55068;BME280;40965;52.368;9.712;2022-11-15T09:24:31;100345.94;;;10.43;100.00
55068;BME280;40965;52.368;9.712;2022-11-15T09:26:58;100343.28;;;10.48;100.00
55068;BME280;40965;52.368;9.712;2022-11-15T09:29:27;100329.25;;;10.52;100.00
55068;BME280;40965;52.368;9.712;2022-11-15T09:31:54;100337.03;;;10.57;100.00
55068;BME280;40965;52.368;9.712;2022-11-15T09:34:21;100333.47;;;10.64;100.00
55068;BME280;40965;52.368;9.712;2022-11-15T09:36:47;100343.78;;;10.73;99.75
55068;BME280;40965;52.368;9.712;2022-11-15T09:39:14;100341.13;;;10.76;99.03
55068;BME280;40965;52.368;9.712;2022-11-15T09:45:10;100352.50;;;10.75;99.09
55068;BME280;40965;52.368;9.712;2022-11-15T09:48:00;100345.53;;;10.74;98.60
55068;BME280;40965;52.368;9.712;2022-11-15T09:50:50;100357.78;;;10.71;99.33
55068;BME280;40965;52.368;9.712;2022-11-15T09:53:35;100356.88;;;10.73;99.17
55068;BME280;40965;52.368;9.712;2022-11-15T09:56:16;100355.94;;;10.78;99.04
55068;BME280;40965;52.368;9.712;2022-11-15T09:59:13;100346.31;;;10.80;98.70
55068;BME280;40965;52.368;9.712;2022-11-15T10:02:19;100344.38;;;10.91;97.71
55068;BME280;40965;52.368;9.712;2022-11-15T10:05:12;100345.13;;;11.01;97.22
55068;BME280;40965;52.368;9.712;2022-11-15T10:07:48;100343.28;;;11.07;97.00
55068;BME280;40965;52.368;9.712;2022-11-15T10:13:14;100338.59;;;11.27;95.21
55068;BME280;40965;52.368;9.712;2022-11-15T10:15:47;100335.03;;;11.31;95.09
55068;BME280;40965;52.368;9.712;2022-11-15T10:18:19;100332.41;;;11.31;94.97
55068;BME280;40965;52.368;9.712;2022-11-15T10:21:17;100334.94;;;11.35;94.81
55068;BME280;40965;52.368;9.712;2022-11-15T10:23:48;100336.56;;;11.42;94.38
55068;BME280;40965;52.368;9.712;2022-11-15T10:26:16;100336.44;;;11.50;93.96
55068;BME280;40965;52.368;9.712;2022-11-15T10:28:46;100333.59;;;11.64;92.95
55068;BME280;40965;52.368;9.712;2022-11-15T10:31:25;100330.84;;;11.69;92.16
55068;BME280;40965;52.368;9.712;2022-11-15T10:34:14;100331.69;;;11.71;92.40
55068;BME280;40965;52.368;9.712;2022-11-15T10:36:45;100328.09;;;11.77;92.07
55068;BME280;40965;52.368;9.712;2022-11-15T10:39:13;100323.59;;;11.83;91.63
55068;BME280;40965;52.368;9.712;2022-11-15T10:41:41;100317.31;;;11.92;89.69
55068;BME280;40965;52.368;9.712;2022-11-15T10:44:28;100315.53;;;11.96;90.07
55068;BME280;40965;52.368;9.712;2022-11-15T10:49:25;100303.22;;;11.98;90.36
55068;BME280;40965;52.368;9.712;2022-11-15T10:51:59;100309.19;;;12.06;89.11
55068;BME280;40965;52.368;9.712;2022-11-15T10:54:50;100302.91;;;12.13;88.20
55068;BME280;40965;52.368;9.712;2022-11-15T10:57:23;100297.50;;;12.21;87.93
55068;BME280;40965;52.368;9.712;2022-11-15T10:59:58;100299.19;;;12.23;87.76
55068;BME280;40965;52.368;9.712;2022-11-15T11:02:38;100304.34;;;12.28;86.87
55068;BME280;40965;52.368;9.712;2022-11-15T11:05:28;100299.88;;;12.33;86.49
55068;BME280;40965;52.368;9.712;2022-11-15T11:10:31;100289.75;;;12.54;84.09
55068;BME280;40965;52.368;9.712;2022-11-15T11:13:14;100292.94;;;12.68;83.62
55068;BME280;40965;52.368;9.712;2022-11-15T11:19:04;100277.03;;;12.74;82.19
55068;BME280;40965;52.368;9.712;2022-11-15T11:21:46;100279.00;;;12.66;82.76
55068;BME280;40965;52.368;9.712;2022-11-15T11:24:21;100278.28;;;12.60;83.09
55068;BME280;40965;52.368;9.712;2022-11-15T11:30:50;100273.16;;;12.53;83.21
55068;BME280;40965;52.368;9.712;2022-11-15T11:33:12;100269.66;;;12.54;83.46
55068;BME280;40965;52.368;9.712;2022-11-15T11:44:54;100264.03;;;12.68;82.54
55068;BME280;40965;52.368;9.712;2022-11-15T11:48:01;100263.09;;;12.72;82.50
55068;BME280;40965;52.368;9.712;2022-11-15T11:50:37;100264.81;;;12.73;82.67
55068;BME280;40965;52.368;9.712;2022-11-15T11:53:31;100245.47;;;12.76;81.97
55068;BME280;40965;52.368;9.712;2022-11-15T11:56:39;100252.41;;;12.80;81.51
55068;BME280;40965;52.368;9.712;2022-11-15T11:59:56;100251.44;;;12.84;81.80
55068;BME280;40965;52.368;9.712;2022-11-15T12:02:18;100250.41;;;12.90;81.23
55068;BME280;40965;52.368;9.712;2022-11-15T12:04:57;100245.06;;;12.93;81.65
55068;BME280;40965;52.368;9.712;2022-11-15T12:07:32;100240.53;;;12.98;81.25
55068;BME280;40965;52.368;9.712;2022-11-15T12:10:22;100236.09;;;13.02;80.12
55068;BME280;40965;52.368;9.712;2022-11-15T12:13:10;100236.88;;;13.05;79.90
55068;BME280;40965;52.368;9.712;2022-11-15T12:15:47;100232.47;;;13.07;80.03
55068;BME280;40965;52.368;9.712;2022-11-15T12:18:18;100223.66;;;13.08;79.80
55068;BME280;40965;52.368;9.712;2022-11-15T12:20:56;100223.59;;;13.10;79.54
55068;BME280;40965;52.368;9.712;2022-11-15T12:23:30;100227.09;;;13.11;79.13
55068;BME280;40965;52.368;9.712;2022-11-15T12:26:04;100225.38;;;13.10;79.30
55068;BME280;40965;52.368;9.712;2022-11-15T12:28:53;100232.38;;;13.11;79.92
55068;BME280;40965;52.368;9.712;2022-11-15T12:31:27;100235.78;;;13.13;79.52
55068;BME280;40965;52.368;9.712;2022-11-15T12:34:13;100225.22;;;13.16;79.45
55068;BME280;40965;52.368;9.712;2022-11-15T12:36:43;100221.66;;;13.18;79.89
55068;BME280;40965;52.368;9.712;2022-11-15T12:39:12;100221.59;;;13.20;79.90
55068;BME280;40965;52.368;9.712;2022-11-15T12:41:44;100215.41;;;13.22;79.71
55068;BME280;40965;52.368;9.712;2022-11-15T13:00:37;100198.84;;;13.19;79.31
55068;BME280;40965;52.368;9.712;2022-11-15T13:03:16;100195.28;;;13.21;78.54
55068;BME280;40965;52.368;9.712;2022-11-15T13:05:55;100192.66;;;13.21;78.48
55068;BME280;40965;52.368;9.712;2022-11-15T13:08:38;100178.75;;;13.16;78.56
55068;BME280;40965;52.368;9.712;2022-11-15T13:11:42;100172.78;;;13.11;78.40
55068;BME280;40965;52.368;9.712;2022-11-15T13:14:38;100170.19;;;13.10;78.81
55068;BME280;40965;52.368;9.712;2022-11-15T13:19:47;100175.66;;;13.02;78.67
55068;BME280;40965;52.368;9.712;2022-11-15T13:22:14;100171.34;;;12.99;79.06
55068;BME280;40965;52.368;9.712;2022-11-15T13:24:59;100159.16;;;12.97;79.06
55068;BME280;40965;52.368;9.712;2022-11-15T13:27:27;100159.25;;;12.94;79.70
55068;BME280;40965;52.368;9.712;2022-11-15T13:29:53;100161.78;;;12.97;79.62
55068;BME280;40965;52.368;9.712;2022-11-15T13:32:21;100159.16;;;12.97;79.43
55068;BME280;40965;52.368;9.712;2022-11-15T13:34:49;100157.41;;;12.97;79.30
55068;BME280;40965;52.368;9.712;2022-11-15T13:39:48;100153.09;;;12.95;79.54
55068;BME280;40965;52.368;9.712;2022-11-15T13:42:20;100147.84;;;12.93;79.71
55068;BME280;40965;52.368;9.712;2022-11-15T13:44:58;100137.47;;;12.88;80.02
55068;BME280;40965;52.368;9.712;2022-11-15T13:47:28;100133.22;;;12.84;80.05
55068;BME280;40965;52.368;9.712;2022-11-15T13:49:57;100136.84;;;12.80;80.30
55068;BME280;40965;52.368;9.712;2022-11-15T13:52:31;100134.38;;;12.74;80.47
55068;BME280;40965;52.368;9.712;2022-11-15T13:55:08;100123.16;;;12.67;80.95
55068;BME280;40965;52.368;9.712;2022-11-15T13:57:48;100127.56;;;12.65;81.14
55068;BME280;40965;52.368;9.712;2022-11-15T14:00:32;100138.13;;;12.64;80.97
55068;BME280;40965;52.368;9.712;2022-11-15T14:03:19;100127.72;;;12.59;81.59
55068;BME280;40965;52.368;9.712;2022-11-15T14:06:08;100124.34;;;12.54;81.98
55068;BME280;40965;52.368;9.712;2022-11-15T14:08:42;100123.66;;;12.47;82.67
55068;BME280;40965;52.368;9.712;2022-11-15T14:11:24;100127.31;;;12.41;83.18
55068;BME280;40965;52.368;9.712;2022-11-15T14:14:11;100124.78;;;12.37;83.52
55068;BME280;40965;52.368;9.712;2022-11-15T14:16:44;100117.09;;;12.31;83.32
55068;BME280;40965;52.368;9.712;2022-11-15T14:28:09;100109.69;;;12.11;85.13
55068;BME280;40965;52.368;9.712;2022-11-15T14:30:39;100112.34;;;12.09;84.98
55068;BME280;40965;52.368;9.712;2022-11-15T14:33:23;100114.13;;;12.08;85.37
55068;BME280;40965;52.368;9.712;2022-11-15T14:35:53;100113.38;;;12.03;85.44
55068;BME280;40965;52.368;9.712;2022-11-15T14:38:21;100104.66;;;12.01;85.77
55068;BME280;40965;52.368;9.712;2022-11-15T14:40:48;100096.88;;;11.97;85.75
55068;BME280;40965;52.368;9.712;2022-11-15T14:43:15;100099.69;;;11.87;86.25